Time;durP1;ratioP1;P1;durP2;ratioP2;P2;SDS_P1;SDS_P2;PMS_P1;PMS_P2;Temp;Humidity;BMP_temperature;BMP_pressure;BME280_temperature;BME280_humidity;BME280_pressure;Samples;Min_cycle;Max_cycle;Signal;HPM_P1;HPM_P2
2023/12/05 00:00:29;;;;;;;8.90;6.53;;;;;;;-0.30;100.00;100769.81;6225537;28;20237;-74
2023/12/05 00:03:50;;;;;;;8.70;7.07;;;;;;;-0.24;100.00;100758.94;6228728;28;20236;-74
2023/12/05 00:07:11;;;;;;;7.73;5.90;;;;;;;-0.28;100.00;100760.00;6236227;28;20579;-75
2023/12/05 00:10:32;;;;;;;7.73;6.03;;;;;;;-0.30;100.00;100755.72;6233656;28;20236;-75
2023/12/05 00:13:54;;;;;;;8.43;7.23;;;;;;;-0.26;100.00;100754.63;6222384;28;20593;-75
2023/12/05 00:17:15;;;;;;;10.33;7.63;;;;;;;-0.28;100.00;100746.78;6219646;28;20229;-74
2023/12/05 00:20:36;;;;;;;9.00;6.33;;;;;;;-0.33;100.00;100750.53;6215196;28;20232;-74
2023/12/05 00:23:57;;;;;;;8.73;6.73;;;;;;;-0.27;100.00;100751.13;6229586;28;20233;-73
2023/12/05 00:27:18;;;;;;;8.37;7.43;;;;;;;-0.35;100.00;100747.09;6218946;28;20236;-74
2023/12/05 00:30:40;;;;;;;7.70;5.80;;;;;;;-0.30;100.00;100734.53;6219856;28;20510;-75
2023/12/05 00:34:01;;;;;;;8.17;7.40;;;;;;;-0.23;100.00;100738.63;6221342;28;20520;-74
2023/12/05 00:37:21;;;;;;;7.40;6.63;;;;;;;-0.28;100.00;100730.03;6220319;28;20233;-74
2023/12/05 00:40:42;;;;;;;8.50;6.37;;;;;;;-0.33;100.00;100729.38;6220310;28;20670;-74
2023/12/05 00:44:03;;;;;;;11.10;6.83;;;;;;;-0.23;100.00;100728.03;6223008;28;20248;-74
2023/12/05 00:47:26;;;;;;;9.43;7.13;;;;;;;-0.29;100.00;100730.94;6228153;28;20228;-75
2023/12/05 00:50:47;;;;;;;10.57;6.93;;;;;;;-0.22;100.00;100732.38;6231566;28;20228;-73
2023/12/05 00:54:08;;;;;;;9.90;6.90;;;;;;;-0.35;100.00;100721.50;6235701;28;20232;-73
2023/12/05 00:57:29;;;;;;;9.20;7.47;;;;;;;-0.24;100.00;100729.81;6227202;28;20236;-73
2023/12/05 01:00:50;;;;;;;8.70;7.77;;;;;;;-0.17;100.00;100717.97;6228143;28;20312;-75
2023/12/05 01:04:12;;;;;;;10.33;7.10;;;;;;;-0.21;100.00;100723.50;6229623;28;20658;-74
2023/12/05 01:07:33;;;;;;;10.13;7.33;;;;;;;-0.13;100.00;100722.22;6227461;28;20232;-75
2023/12/05 01:10:54;;;;;;;7.90;6.47;;;;;;;-0.28;100.00;100722.94;6228042;28;20237;-74
2023/12/05 01:14:15;;;;;;;7.43;6.07;;;;;;;-0.22;100.00;100708.53;6216228;28;20232;-75
2023/12/05 01:17:37;;;;;;;10.10;7.53;;;;;;;-0.19;100.00;100719.84;6219719;28;20236;-74
2023/12/05 01:20:59;;;;;;;6.97;6.20;;;;;;;-0.19;100.00;100711.91;6218795;28;20568;-75
2023/12/05 01:24:20;;;;;;;8.40;6.50;;;;;;;-0.14;100.00;100706.38;6213891;28;20236;-75
2023/12/05 01:27:41;;;;;;;9.57;7.00;;;;;;;-0.14;100.00;100704.59;6218771;28;20233;-75
2023/12/05 01:31:02;;;;;;;8.13;7.37;;;;;;;-0.20;100.00;100698.72;6199576;28;20610;-74
2023/12/05 01:34:23;;;;;;;10.33;8.27;;;;;;;-0.13;100.00;100701.03;6215222;28;20232;-74
2023/12/05 01:37:46;;;;;;;8.03;6.30;;;;;;;-0.25;100.00;100706.06;6211788;28;20855;-74
2023/12/05 01:41:08;;;;;;;8.07;6.50;;;;;;;-0.12;100.00;100705.38;6225916;28;20236;-75
2023/12/05 01:44:29;;;;;;;8.30;6.40;;;;;;;-0.06;100.00;100696.28;6217433;28;20248;-74
2023/12/05 01:47:50;;;;;;;7.80;6.90;;;;;;;-0.15;100.00;100696.75;6216830;28;20286;-75
2023/12/05 01:51:12;;;;;;;7.30;6.60;;;;;;;-0.11;100.00;100696.53;6218788;28;20247;-75
2023/12/05 01:54:34;;;;;;;9.90;8.47;;;;;;;-0.04;100.00;100695.28;6220418;28;20837;-75
2023/12/05 01:57:55;;;;;;;7.37;6.63;;;;;;;-0.04;100.00;100699.72;6219940;28;20236;-74
2023/12/05 02:01:17;;;;;;;7.73;6.77;;;;;;;-0.10;100.00;100690.28;6221025;28;20305;-75
2023/12/05 02:04:40;;;;;;;9.17;7.27;;;;;;;-0.06;100.00;100691.84;6221360;28;20237;-76
2023/12/05 02:08:01;;;;;;;9.23;6.43;;;;;;;-0.14;100.00;100688.72;6219975;28;20264;-75
2023/12/05 02:11:23;;;;;;;9.07;6.53;;;;;;;-0.05;100.00;100682.97;6223916;28;20244;-74
2023/12/05 02:14:45;;;;;;;8.00;6.03;;;;;;;-0.05;100.00;100680.34;6191282;28;20314;-75
2023/12/05 02:18:12;;;;;;;8.57;6.60;;;;;;;-0.09;100.00;100680.53;6240434;28;20596;-75
2023/12/05 02:21:37;;;;;;;10.00;7.37;;;;;;;0.02;100.00;100672.06;6253750;28;20239;-74
2023/12/05 02:25:10;;;;;;;9.00;8.10;;;;;;;-0.01;100.00;100671.28;6246950;28;20260;-74
2023/12/05 02:28:34;;;;;;;9.73;8.70;;;;;;;0.10;100.00;100675.22;6233259;28;20562;-75
2023/12/05 02:31:56;;;;;;;9.10;7.87;;;;;;;-0.01;100.00;100673.09;6236191;28;20243;-75
2023/12/05 02:35:17;;;;;;;7.80;7.00;;;;;;;0.06;100.00;100668.34;6238575;28;20231;-75
2023/12/05 02:38:49;;;;;;;8.07;7.17;;;;;;;0.06;100.00;100660.41;6231504;28;20243;-74
2023/12/05 02:42:13;;;;;;;10.63;9.43;;;;;;;-0.06;100.00;100660.06;6232612;28;20694;-74
2023/12/05 02:45:39;;;;;;;10.30;7.53;;;;;;;0.08;100.00;100647.94;6233893;28;20259;-73
2023/12/05 02:49:01;;;;;;;11.70;8.23;;;;;;;-0.13;100.00;100656.00;6238661;28;20243;-74
2023/12/05 02:52:22;;;;;;;7.87;7.03;;;;;;;-0.19;100.00;100650.16;6243383;28;20236;-74
2023/12/05 02:55:43;;;;;;;11.27;9.20;;;;;;;-0.08;100.00;100645.16;6248021;28;20228;-73
2023/12/05 02:59:04;;;;;;;10.73;9.37;;;;;;;-0.10;100.00;100657.63;6237115;28;20235;-75
2023/12/05 03:02:26;;;;;;;10.83;8.00;;;;;;;-0.06;100.00;100656.53;6221800;28;20564;-75
2023/12/05 03:05:47;;;;;;;8.93;7.60;;;;;;;-0.11;100.00;100646.19;6240572;28;20227;-74
2023/12/05 03:09:08;;;;;;;15.40;8.07;;;;;;;-0.02;100.00;100653.66;6247386;28;20247;-75
2023/12/05 03:12:31;;;;;;;9.70;8.10;;;;;;;-0.06;100.00;100646.81;6243680;28;20553;-74
2023/12/05 03:15:52;;;;;;;11.23;8.00;;;;;;;-0.05;100.00;100637.06;6244774;28;20536;-74
2023/12/05 03:19:15;;;;;;;10.27;7.77;;;;;;;-0.11;100.00;100646.19;6241792;28;20231;-74
2023/12/05 03:22:36;;;;;;;11.50;9.50;;;;;;;-0.04;100.00;100630.84;6237073;28;20235;-74
2023/12/05 03:25:57;;;;;;;12.97;8.67;;;;;;;-0.06;100.00;100636.22;6238239;28;20731;-73
2023/12/05 03:29:17;;;;;;;13.53;9.70;;;;;;;-0.07;100.00;100628.34;6239643;28;20712;-74
2023/12/05 03:32:38;;;;;;;11.30;9.07;;;;;;;-0.19;100.00;100629.78;6240937;28;20223;-74
2023/12/05 03:36:00;;;;;;;11.33;8.30;;;;;;;-0.18;100.00;100626.22;6246960;28;20236;-75
2023/12/05 03:39:21;;;;;;;11.33;7.60;;;;;;;-0.13;100.00;100620.72;6241589;28;20228;-74
2023/12/05 03:42:42;;;;;;;11.03;7.67;;;;;;;-0.15;100.00;100617.28;6231510;28;20224;-74
2023/12/05 03:46:04;;;;;;;11.63;9.57;;;;;;;-0.21;100.00;100622.88;6231471;28;20262;-74
2023/12/05 03:49:25;;;;;;;12.80;9.73;;;;;;;-0.32;100.00;100618.09;6242664;28;20257;-74
2023/12/05 03:52:48;;;;;;;11.30;9.37;;;;;;;-0.31;100.00;100619.81;6228498;28;20236;-74
2023/12/05 03:56:09;;;;;;;13.30;9.67;;;;;;;-0.35;100.00;100618.25;6235954;28;20227;-74
2023/12/05 03:59:30;;;;;;;13.50;9.70;;;;;;;-0.33;100.00;100634.03;6239558;28;20236;-75
2023/12/05 04:02:51;;;;;;;13.07;11.67;;;;;;;-0.30;100.00;100621.53;6237392;28;20227;-74
2023/12/05 04:06:20;;;;;;;13.50;10.63;;;;;;;-0.28;100.00;100632.03;6235040;28;20232;-75
2023/12/05 04:09:42;;;;;;;11.73;10.57;;;;;;;-0.36;100.00;100632.44;6241814;28;20227;-73
2023/12/05 04:13:04;;;;;;;10.80;8.83;;;;;;;-0.22;100.00;100629.97;6241267;28;20235;-75
2023/12/05 04:16:24;;;;;;;13.60;9.97;;;;;;;-0.24;100.00;100634.47;6240949;28;20334;-74
2023/12/05 04:19:45;;;;;;;10.93;9.10;;;;;;;-0.24;100.00;100629.19;6247813;28;20720;-75
2023/12/05 04:23:06;;;;;;;14.33;12.00;;;;;;;-0.35;100.00;100628.81;6244780;28;20235;-73
2023/12/05 04:26:28;;;;;;;15.03;10.57;;;;;;;-0.38;100.00;100642.22;6247253;28;20224;-73
2023/12/05 04:29:49;;;;;;;12.30;9.93;;;;;;;-0.32;100.00;100644.59;6244185;28;20239;-73
2023/12/05 04:33:10;;;;;;;16.50;12.70;;;;;;;-0.32;100.00;100641.94;6245459;28;20318;-73
2023/12/05 04:36:31;;;;;;;14.47;10.50;;;;;;;-0.32;100.00;100638.41;6256002;28;20236;-75
2023/12/05 04:39:52;;;;;;;15.97;11.33;;;;;;;-0.38;100.00;100631.63;6246728;28;20232;-74
2023/12/05 04:43:14;;;;;;;13.20;10.90;;;;;;;-0.46;100.00;100631.13;6245129;28;20236;-73
2023/12/05 04:46:37;;;;;;;15.73;11.80;;;;;;;-0.50;100.00;100628.72;6260738;28;20236;-73
2023/12/05 04:49:57;;;;;;;13.57;11.93;;;;;;;-0.46;100.00;100638.22;6264228;28;20239;-74
2023/12/05 04:53:18;;;;;;;14.67;11.57;;;;;;;-0.57;100.00;100630.78;6257322;28;20593;-74
2023/12/05 04:56:40;;;;;;;14.93;13.20;;;;;;;-0.69;100.00;100641.09;6242132;28;20782;-73
2023/12/05 05:00:03;;;;;;;17.67;12.57;;;;;;;-0.61;100.00;100636.31;6262130;28;20267;-75
2023/12/05 05:03:24;;;;;;;14.40;12.53;;;;;;;-0.75;100.00;100636.09;6242021;28;20239;-74
2023/12/05 05:06:45;;;;;;;18.60;13.73;;;;;;;-0.62;100.00;100631.91;6236367;28;20228;-75
2023/12/05 05:10:07;;;;;;;15.20;12.03;;;;;;;-0.57;100.00;100629.94;6250367;28;20569;-74
2023/12/05 05:13:28;;;;;;;13.33;11.33;;;;;;;-0.58;100.00;100629.06;6252580;28;20231;-73
2023/12/05 05:16:53;;;;;;;12.50;11.00;;;;;;;-0.55;100.00;100625.41;6244111;28;20229;-74
2023/12/05 05:20:14;;;;;;;20.13;12.63;;;;;;;-0.62;100.00;100622.19;6247780;28;20254;-75
2023/12/05 05:23:35;;;;;;;17.70;11.93;;;;;;;-0.63;100.00;100624.94;6242700;28;20243;-74
2023/12/05 05:26:56;;;;;;;14.90;12.23;;;;;;;-0.55;100.00;100618.34;6234847;28;20227;-74
2023/12/05 05:30:17;;;;;;;16.97;11.43;;;;;;;-0.69;100.00;100619.94;6241331;28;20224;-75
2023/12/05 05:33:39;;;;;;;17.83;13.80;;;;;;;-0.72;100.00;100620.94;6256914;28;20613;-74
2023/12/05 05:36:59;;;;;;;14.70;11.60;;;;;;;-0.76;100.00;100622.00;6237442;28;20859;-73
2023/12/05 05:40:21;;;;;;;18.70;12.63;;;;;;;-0.77;100.00;100612.34;6236087;28;20251;-74
2023/12/05 05:43:42;;;;;;;16.63;12.20;;;;;;;-0.68;100.00;100614.56;6244024;28;20817;-74
2023/12/05 05:47:03;;;;;;;14.40;12.13;;;;;;;-0.57;100.00;100617.56;6237077;28;20228;-74
2023/12/05 05:50:25;;;;;;;14.90;11.57;;;;;;;-0.52;100.00;100614.69;6237696;28;20236;-74
2023/12/05 05:53:46;;;;;;;17.13;12.13;;;;;;;-0.69;100.00;100615.50;6245576;28;20231;-73
2023/12/05 05:57:07;;;;;;;15.27;12.40;;;;;;;-0.74;100.00;100611.34;6242159;28;21413;-74
2023/12/05 06:00:27;;;;;;;15.60;11.90;;;;;;;-0.70;100.00;100619.06;6241969;28;20224;-74
2023/12/05 06:03:48;;;;;;;16.37;14.10;;;;;;;-0.57;100.00;100608.75;6247919;28;20571;-74
2023/12/05 06:07:11;;;;;;;15.83;12.03;;;;;;;-0.49;100.00;100604.81;6239784;28;20247;-74
2023/12/05 06:10:32;;;;;;;16.27;11.50;;;;;;;-0.45;100.00;100610.81;6242882;28;20231;-74
2023/12/05 06:13:54;;;;;;;15.23;11.70;;;;;;;-0.50;100.00;100604.91;6249570;28;20227;-73
2023/12/05 06:17:15;;;;;;;18.90;14.37;;;;;;;-0.37;100.00;100606.88;6249320;28;20227;-73
2023/12/05 06:20:36;;;;;;;17.73;13.90;;;;;;;-0.49;100.00;100612.75;6248132;28;20524;-73
2023/12/05 06:23:58;;;;;;;15.57;11.33;;;;;;;-0.40;100.00;100601.72;6248020;28;20231;-74
2023/12/05 06:27:20;;;;;;;16.33;11.67;;;;;;;-0.42;100.00;100606.25;6247060;28;20320;-74
2023/12/05 06:30:41;;;;;;;18.33;14.07;;;;;;;-0.37;100.00;100604.22;6245505;28;20232;-73
2023/12/05 06:34:02;;;;;;;16.43;12.83;;;;;;;-0.34;100.00;100611.16;6245494;28;20331;-74
2023/12/05 06:37:23;;;;;;;14.17;12.77;;;;;;;-0.48;100.00;100609.16;6259331;28;20231;-73
2023/12/05 06:40:45;;;;;;;23.47;13.77;;;;;;;-0.45;100.00;100618.75;6247618;28;20231;-73
2023/12/05 06:44:06;;;;;;;15.10;11.77;;;;;;;-0.54;100.00;100620.03;6248992;28;20239;-73
2023/12/05 06:47:27;;;;;;;16.03;12.53;;;;;;;-0.48;100.00;100610.97;6245409;28;20232;-74
2023/12/05 06:50:48;;;;;;;16.17;12.80;;;;;;;-0.48;100.00;100610.97;6251509;28;20235;-73
2023/12/05 06:54:09;;;;;;;19.60;14.17;;;;;;;-0.49;100.00;100615.41;6250364;28;20224;-73
2023/12/05 06:57:31;;;;;;;22.40;13.37;;;;;;;-0.59;100.00;100619.44;6248718;28;20236;-74
2023/12/05 07:00:52;;;;;;;17.20;13.17;;;;;;;-0.79;100.00;100629.22;6248022;28;21451;-73
2023/12/05 07:04:14;;;;;;;17.40;11.43;;;;;;;-0.66;100.00;100623.28;6244212;28;20219;-75
2023/12/05 07:07:35;;;;;;;23.57;13.20;;;;;;;-0.68;100.00;100611.91;6244383;28;20235;-73
2023/12/05 07:10:56;;;;;;;18.60;12.47;;;;;;;-0.63;100.00;100609.91;6241667;28;20236;-73
2023/12/05 07:14:18;;;;;;;17.03;14.20;;;;;;;-0.51;100.00;100617.28;6237773;28;20267;-74
2023/12/05 07:17:39;;;;;;;18.53;14.40;;;;;;;-0.40;100.00;100616.75;6241280;28;21066;-73
2023/12/05 07:21:00;;;;;;;19.67;14.50;;;;;;;-0.52;100.00;100620.81;6240145;28;20600;-74
2023/12/05 07:24:21;;;;;;;22.03;14.37;;;;;;;-0.46;100.00;100625.00;6252741;28;20333;-74
2023/12/05 07:27:42;;;;;;;16.93;12.60;;;;;;;-0.52;100.00;100623.47;6239400;28;20807;-73
2023/12/05 07:31:05;;;;;;;17.77;15.77;;;;;;;-0.40;100.00;100622.91;6252848;28;20227;-74
2023/12/05 07:34:26;;;;;;;17.77;13.70;;;;;;;-0.39;100.00;100637.00;6237519;28;20227;-73
2023/12/05 07:37:47;;;;;;;21.30;14.80;;;;;;;-0.35;100.00;100633.25;6236843;28;20319;-73
2023/12/05 07:41:19;;;;;;;20.17;15.93;;;;;;;-0.30;100.00;100642.72;6241598;28;20608;-73
2023/12/05 07:44:40;;;;;;;16.77;13.10;;;;;;;-0.41;100.00;100630.91;6251049;28;20231;-73
2023/12/05 07:48:03;;;;;;;16.93;12.60;;;;;;;-0.43;100.00;100636.28;6246314;28;20248;-73
2023/12/05 07:51:24;;;;;;;20.37;17.00;;;;;;;-0.40;100.00;100644.09;6248512;28;20247;-74
2023/12/05 07:54:44;;;;;;;17.30;14.77;;;;;;;-0.42;100.00;100645.09;6249417;28;20574;-73
2023/12/05 07:58:05;;;;;;;21.37;16.00;;;;;;;-0.30;100.00;100647.16;6245409;28;20266;-73
2023/12/05 08:01:27;;;;;;;18.03;14.20;;;;;;;-0.25;100.00;100647.78;6240403;28;20236;-74
2023/12/05 08:04:49;;;;;;;18.60;13.93;;;;;;;-0.38;100.00;100647.53;6247067;28;20251;-72
2023/12/05 08:08:10;;;;;;;16.50;14.73;;;;;;;-0.29;100.00;100643.56;6248839;28;20228;-73
2023/12/05 08:11:30;;;;;;;18.97;12.97;;;;;;;-0.30;100.00;100642.72;6247965;28;20583;-74
2023/12/05 08:14:51;;;;;;;17.33;13.80;;;;;;;-0.41;100.00;100646.78;6242066;28;20259;-74
2023/12/05 08:18:12;;;;;;;15.63;13.57;;;;;;;-0.29;100.00;100654.13;6240489;28;20227;-73
2023/12/05 08:21:37;;;;;;;20.87;15.77;;;;;;;-0.20;100.00;100659.88;6243793;28;20512;-75
2023/12/05 08:24:57;;;;;;;18.23;14.13;;;;;;;-0.24;100.00;100660.94;6244052;28;20308;-74
2023/12/05 08:28:19;;;;;;;24.30;13.43;;;;;;;-0.18;100.00;100657.13;6239338;28;20232;-73
2023/12/05 08:31:39;;;;;;;17.57;14.13;;;;;;;-0.18;100.00;100649.19;6244357;28;20228;-73
2023/12/05 08:35:00;;;;;;;18.83;12.97;;;;;;;-0.14;100.00;100650.75;6239227;28;20228;-73
2023/12/05 08:38:22;;;;;;;20.67;16.07;;;;;;;-0.05;100.00;100645.91;6242553;28;20678;-73
2023/12/05 08:41:43;;;;;;;23.83;16.17;;;;;;;-0.25;100.00;100648.63;6245001;28;20236;-74
2023/12/05 08:45:05;;;;;;;16.77;12.33;;;;;;;-0.15;100.00;100649.06;6253463;28;20346;-74
2023/12/05 08:48:26;;;;;;;16.13;14.37;;;;;;;-0.12;100.00;100649.75;6245480;28;20259;-74
2023/12/05 08:51:47;;;;;;;17.80;14.63;;;;;;;-0.06;100.00;100651.25;6252378;28;20240;-73
2023/12/05 08:55:09;;;;;;;19.13;14.50;;;;;;;-0.19;100.00;100658.91;6252834;28;20231;-74
2023/12/05 08:58:30;;;;;;;21.03;13.90;;;;;;;-0.17;100.00;100657.06;6247171;28;20228;-73
2023/12/05 09:01:51;;;;;;;15.97;12.60;;;;;;;-0.06;100.00;100657.41;6239918;28;20228;-73
2023/12/05 09:05:12;;;;;;;20.00;17.00;;;;;;;-0.03;100.00;100667.00;6241135;28;20536;-75
2023/12/05 09:08:32;;;;;;;17.10;15.33;;;;;;;0.05;100.00;100667.47;6259421;28;20231;-74
2023/12/05 09:11:55;;;;;;;18.27;15.23;;;;;;;-0.20;100.00;100661.66;6245069;28;20239;-74
2023/12/05 09:15:16;;;;;;;15.10;13.17;;;;;;;-0.22;100.00;100669.69;6252813;28;20282;-73
2023/12/05 09:18:37;;;;;;;22.47;16.20;;;;;;;-0.22;100.00;100674.13;6251899;28;20254;-73
2023/12/05 09:21:58;;;;;;;16.80;12.83;;;;;;;-0.11;100.00;100670.03;6253605;28;20358;-75
2023/12/05 09:25:19;;;;;;;20.80;14.77;;;;;;;-0.07;100.00;100681.31;6249690;28;20231;-74
2023/12/05 09:28:41;;;;;;;16.70;14.23;;;;;;;-0.29;100.00;100672.69;6255614;28;20232;-74
2023/12/05 09:32:02;;;;;;;16.33;13.23;;;;;;;-0.24;100.00;100684.78;6246951;28;21011;-74
2023/12/05 09:35:23;;;;;;;17.57;14.40;;;;;;;-0.32;100.00;100673.72;6248678;28;20227;-74
2023/12/05 09:38:44;;;;;;;18.07;15.27;;;;;;;-0.09;100.00;100676.13;6256761;28;20231;-73
2023/12/05 09:42:10;;;;;;;17.53;13.87;;;;;;;-0.05;100.00;100680.34;6253847;28;20312;-75
2023/12/05 09:45:39;;;;;;;15.00;13.40;;;;;;;0.03;100.00;100676.44;6245145;28;20220;-74
2023/12/05 09:49:05;;;;;;;17.93;13.17;;;;;;;0.04;100.00;100670.22;6246475;28;20310;-74
2023/12/05 09:52:27;;;;;;;18.70;15.47;;;;;;;0.02;100.00;100678.25;6249279;28;20605;-73
2023/12/05 09:55:48;;;;;;;17.03;13.47;;;;;;;0.26;100.00;100673.50;6249606;28;20232;-73
2023/12/05 09:59:10;;;;;;;16.40;12.40;;;;;;;0.25;100.00;100667.34;6245173;28;20257;-74
2023/12/05 10:02:33;;;;;;;19.10;14.00;;;;;;;0.33;100.00;100661.66;6241253;28;21757;-74
2023/12/05 10:05:56;;;;;;;19.13;14.23;;;;;;;0.26;100.00;100661.13;6242158;28;20237;-74
2023/12/05 10:09:22;;;;;;;18.60;13.33;;;;;;;0.40;100.00;100663.06;6248651;28;20231;-74
2023/12/05 10:12:43;;;;;;;18.97;14.53;;;;;;;0.56;100.00;100662.19;6242044;28;20240;-74
2023/12/05 10:16:06;;;;;;;20.70;16.07;;;;;;;0.65;100.00;100659.09;6251239;28;20800;-73
2023/12/05 10:19:30;;;;;;;17.43;13.83;;;;;;;0.71;100.00;100649.94;6247406;28;20224;-73
2023/12/05 10:22:52;;;;;;;18.60;14.10;;;;;;;0.68;100.00;100658.06;6252557;28;20232;-73
2023/12/05 10:26:13;;;;;;;20.07;15.30;;;;;;;0.58;100.00;100651.53;6249907;28;20624;-73
2023/12/05 10:29:38;;;;;;;24.60;16.73;;;;;;;0.71;100.00;100652.59;6250914;28;20228;-73
2023/12/05 10:33:10;;;;;;;18.87;14.00;;;;;;;0.66;100.00;100647.56;6249649;28;20235;-74
2023/12/05 10:36:32;;;;;;;18.13;15.10;;;;;;;0.72;100.00;100647.22;6249698;28;20621;-73
2023/12/05 10:39:54;;;;;;;16.27;13.20;;;;;;;0.71;100.00;100655.25;6246409;28;20323;-74
2023/12/05 10:43:15;;;;;;;19.10;14.23;;;;;;;0.74;100.00;100642.69;6264120;28;20723;-74
2023/12/05 10:46:36;;;;;;;19.13;14.37;;;;;;;0.58;100.00;100644.44;6250551;28;20239;-74
2023/12/05 10:49:57;;;;;;;21.70;16.80;;;;;;;0.54;100.00;100652.63;6249393;28;20224;-74
2023/12/05 10:53:20;;;;;;;16.27;14.60;;;;;;;0.55;100.00;100649.03;6251721;28;20240;-73
2023/12/05 10:56:55;;;;;;;18.10;13.97;;;;;;;0.51;100.00;100640.38;6251285;28;20334;-73
2023/12/05 11:00:17;;;;;;;19.07;14.33;;;;;;;0.59;100.00;100638.19;6253454;28;20330;-75
2023/12/05 11:03:38;;;;;;;18.13;14.70;;;;;;;0.57;100.00;100641.84;6251415;28;20315;-74
2023/12/05 11:06:59;;;;;;;18.93;14.50;;;;;;;0.47;100.00;100637.97;6242212;28;20679;-74
2023/12/05 11:10:22;;;;;;;17.03;14.23;;;;;;;0.60;100.00;100633.75;6251170;28;20588;-73
2023/12/05 11:13:43;;;;;;;20.47;16.13;;;;;;;0.55;100.00;100630.47;6252101;28;20231;-75
2023/12/05 11:17:11;;;;;;;19.50;14.63;;;;;;;0.64;100.00;100627.34;6254629;28;20232;-73
2023/12/05 11:20:52;;;;;;;17.20;13.67;;;;;;;0.55;100.00;100633.13;6245653;28;20231;-73
2023/12/05 11:24:34;;;;;;;15.80;14.03;;;;;;;0.57;100.00;100629.47;6247747;28;20223;-74
2023/12/05 11:28:10;;;;;;;19.07;16.17;;;;;;;0.78;100.00;100636.28;6245789;28;20251;-74
2023/12/05 11:31:41;;;;;;;17.53;13.50;;;;;;;0.85;100.00;100628.88;6251985;28;20232;-74
2023/12/05 11:35:11;;;;;;;15.90;12.27;;;;;;;0.79;100.00;100632.69;6249895;28;20274;-75
2023/12/05 11:38:32;;;;;;;18.80;16.03;;;;;;;0.81;100.00;100632.63;6256981;28;20219;-73
2023/12/05 11:42:10;;;;;;;26.03;16.23;;;;;;;0.82;100.00;100629.88;6249649;28;20303;-73
2023/12/05 11:45:33;;;;;;;14.90;13.23;;;;;;;0.79;100.00;100632.69;6246232;28;20621;-73
2023/12/05 11:48:56;;;;;;;19.10;13.07;;;;;;;0.76;100.00;100638.16;6251722;28;20665;-73
2023/12/05 11:52:19;;;;;;;19.57;15.63;;;;;;;0.73;100.00;100630.38;6250796;28;20228;-74
2023/12/05 11:55:41;;;;;;;23.03;14.57;;;;;;;0.82;100.00;100631.69;6253291;28;20228;-73
2023/12/05 11:59:20;;;;;;;15.63;13.10;;;;;;;0.75;100.00;100638.25;6252601;28;20663;-73
2023/12/05 12:02:48;;;;;;;17.77;15.80;;;;;;;0.87;100.00;100629.66;6251793;28;21180;-73
2023/12/05 12:06:09;;;;;;;19.37;13.87;;;;;;;0.86;100.00;100630.56;6252090;28;20231;-73
2023/12/05 12:09:36;;;;;;;15.77;14.03;;;;;;;0.76;100.00;100632.00;6248277;28;20325;-74
2023/12/05 12:12:57;;;;;;;18.30;13.23;;;;;;;0.90;100.00;100624.16;6251349;28;20235;-74
2023/12/05 12:16:19;;;;;;;18.47;15.03;;;;;;;0.82;100.00;100631.69;6256228;28;20232;-73
2023/12/05 12:19:43;;;;;;;16.80;13.67;;;;;;;0.94;100.00;100627.53;6251762;28;20240;-74
2023/12/05 12:23:04;;;;;;;19.27;12.40;;;;;;;0.83;100.00;100628.09;6251381;28;20258;-74
2023/12/05 12:26:25;;;;;;;16.80;13.90;;;;;;;0.82;100.00;100619.28;6253889;28;20611;-73
2023/12/05 12:29:53;;;;;;;18.23;13.23;;;;;;;0.79;100.00;100618.59;6251680;28;20632;-74
2023/12/05 12:33:14;;;;;;;17.57;14.73;;;;;;;0.85;100.00;100622.69;6255186;28;20525;-74
2023/12/05 12:36:37;;;;;;;12.83;10.77;;;;;;;0.77;100.00;100623.13;6250556;28;20266;-74
2023/12/05 12:39:58;;;;;;;21.30;14.97;;;;;;;0.94;100.00;100623.06;6253933;28;20565;-74
2023/12/05 12:43:19;;;;;;;18.17;13.77;;;;;;;0.81;100.00;100630.81;6256962;28;20586;-74
2023/12/05 12:46:41;;;;;;;15.73;13.73;;;;;;;0.69;100.00;100634.13;6247989;28;20242;-75
2023/12/05 12:50:04;;;;;;;14.70;12.47;;;;;;;0.66;100.00;100631.63;6254021;28;20240;-75
2023/12/05 12:53:27;;;;;;;14.53;13.10;;;;;;;0.80;100.00;100623.81;6253689;28;20220;-74
2023/12/05 12:56:49;;;;;;;17.83;15.67;;;;;;;0.94;100.00;100625.72;6241370;28;20231;-74
2023/12/05 13:00:12;;;;;;;18.57;13.70;;;;;;;0.78;100.00;100628.34;6254676;28;22954;-73
2023/12/05 13:03:33;;;;;;;17.43;13.60;;;;;;;0.84;100.00;100627.16;6254795;28;20227;-74
2023/12/05 13:06:54;;;;;;;16.87;12.77;;;;;;;1.00;100.00;100624.56;6253127;28;20228;-76
2023/12/05 13:10:16;;;;;;;16.60;14.17;;;;;;;0.82;100.00;100627.22;6253227;28;20243;-75
2023/12/05 13:13:38;;;;;;;20.77;12.67;;;;;;;0.82;100.00;100623.72;6255998;28;20334;-74
2023/12/05 13:16:59;;;;;;;16.57;13.00;;;;;;;0.79;100.00;100623.91;6255039;28;20320;-75
2023/12/05 13:20:20;;;;;;;17.83;14.60;;;;;;;0.90;100.00;100631.28;6253583;28;20264;-76
2023/12/05 13:23:42;;;;;;;17.07;10.80;;;;;;;0.86;100.00;100627.91;6255327;28;20244;-74
2023/12/05 13:27:04;;;;;;;15.97;12.93;;;;;;;0.69;100.00;100628.81;6249639;28;20632;-75
2023/12/05 13:30:25;;;;;;;16.13;13.60;;;;;;;0.67;100.00;100619.22;6245477;28;20309;-75
2023/12/05 13:33:46;;;;;;;18.17;14.00;;;;;;;0.61;100.00;100624.84;6252005;28;20227;-75
2023/12/05 13:37:07;;;;;;;15.33;11.50;;;;;;;0.54;100.00;100632.25;6254454;28;20236;-74
2023/12/05 13:40:29;;;;;;;15.73;13.77;;;;;;;0.70;100.00;100635.84;6249772;28;20235;-73
2023/12/05 13:43:52;;;;;;;14.60;13.10;;;;;;;0.78;100.00;100630.13;6250861;28;20235;-75
2023/12/05 13:47:13;;;;;;;17.43;14.13;;;;;;;0.86;100.00;100633.22;6250394;28;20749;-75
2023/12/05 13:50:34;;;;;;;14.73;11.77;;;;;;;0.79;100.00;100631.84;6251264;28;20271;-74
2023/12/05 13:53:55;;;;;;;16.33;12.00;;;;;;;0.58;100.00;100635.63;6253357;28;20318;-74
2023/12/05 13:57:16;;;;;;;13.53;11.50;;;;;;;0.55;100.00;100633.13;6251031;28;20235;-74
2023/12/05 14:00:38;;;;;;;17.80;13.43;;;;;;;0.66;100.00;100628.13;6253378;28;20612;-74
2023/12/05 14:03:59;;;;;;;20.57;14.57;;;;;;;0.59;100.00;100632.03;6248909;28;20219;-74
2023/12/05 14:07:20;;;;;;;16.60;13.03;;;;;;;0.61;100.00;100636.31;6249296;28;20235;-75
2023/12/05 14:10:41;;;;;;;23.07;18.50;;;;;;;0.60;100.00;100647.00;6248773;28;20319;-75
2023/12/05 14:14:05;;;;;;;23.23;20.77;;;;;;;0.66;100.00;100634.28;6234621;28;20235;-75
2023/12/05 14:17:27;;;;;;;17.60;15.60;;;;;;;0.73;100.00;100642.78;6247170;28;20231;-74
2023/12/05 14:20:48;;;;;;;15.87;12.57;;;;;;;0.54;100.00;100645.50;6237521;28;20228;-74
2023/12/05 14:24:09;;;;;;;15.50;11.63;;;;;;;0.66;100.00;100638.72;6258619;28;20247;-74
2023/12/05 14:27:30;;;;;;;15.50;13.13;;;;;;;0.48;100.00;100648.47;6244352;28;20260;-75
2023/12/05 14:30:51;;;;;;;15.53;11.60;;;;;;;0.56;100.00;100643.63;6249897;28;20239;-74
2023/12/05 14:34:13;;;;;;;18.37;11.00;;;;;;;0.57;100.00;100649.81;6244761;28;20219;-76
2023/12/05 14:37:34;;;;;;;12.30;11.07;;;;;;;0.43;100.00;100647.00;6245809;28;20231;-75
2023/12/05 14:40:55;;;;;;;15.57;11.50;;;;;;;0.46;100.00;100650.34;6247388;28;20247;-75
2023/12/05 14:44:16;;;;;;;16.53;11.07;;;;;;;0.52;100.00;100651.84;6242299;28;20223;-75
2023/12/05 14:47:37;;;;;;;15.53;12.53;;;;;;;0.42;100.00;100655.88;6251572;28;20504;-74
2023/12/05 14:51:00;;;;;;;17.73;13.30;;;;;;;0.53;100.00;100657.06;6252921;28;20227;-76
2023/12/05 14:54:21;;;;;;;15.33;12.00;;;;;;;0.61;100.00;100664.63;6254316;28;20327;-75
2023/12/05 14:57:42;;;;;;;21.43;14.20;;;;;;;0.66;100.00;100663.47;6252698;28;20263;-75
2023/12/05 15:01:04;;;;;;;15.13;13.27;;;;;;;0.56;100.00;100671.97;6248288;28;20322;-75
2023/12/05 15:04:27;;;;;;;13.00;10.70;;;;;;;0.67;100.00;100662.50;6546032;22;20221;-74
2023/12/05 15:07:49;;;;;;;14.47;11.53;;;;;;;0.46;100.00;100671.56;6215790;28;20232;-74
2023/12/05 15:11:10;;;;;;;14.83;10.70;;;;;;;0.48;100.00;100674.16;6221131;28;20321;-75
2023/12/05 15:14:31;;;;;;;14.90;11.47;;;;;;;0.48;100.00;100675.00;6197594;28;20229;-74